sensor_id;sensor_type;location;lat;lon;timestamp;pressure;altitude;pressure_sealevel;temperature;humidity
62025;BME280;47978;49.118;12.146;2023-04-01T00:03:39;96103.28;;;8.29;83.38
62025;BME280;47978;49.118;12.146;2023-04-01T00:07:42;96104.44;;;8.28;83.60
62025;BME280;47978;49.118;12.146;2023-04-01T00:11:44;96101.69;;;8.28;83.27
62025;BME280;47978;49.118;12.146;2023-04-01T00:15:45;96108.31;;;8.27;83.69
62025;BME280;47978;49.118;12.146;2023-04-01T00:19:47;96106.69;;;8.26;83.12
62025;BME280;47978;49.118;12.146;2023-04-01T00:23:50;96105.41;;;8.32;83.04
62025;BME280;47978;49.118;12.146;2023-04-01T00:27:51;96101.50;;;8.33;83.10
62025;BME280;47978;49.118;12.146;2023-04-01T00:31:52;96107.84;;;8.34;82.77
62025;BME280;47978;49.118;12.146;2023-04-01T00:35:54;96102.16;;;8.39;82.01
62025;BME280;47978;49.118;12.146;2023-04-01T00:39:57;96111.25;;;8.40;81.62
62025;BME280;47978;49.118;12.146;2023-04-01T00:44:12;96106.19;;;8.33;81.77
62025;BME280;47978;49.118;12.146;2023-04-01T00:48:16;96101.50;;;8.33;82.00
62025;BME280;47978;49.118;12.146;2023-04-01T00:52:19;96090.66;;;8.37;81.67
62025;BME280;47978;49.118;12.146;2023-04-01T00:56:24;96093.59;;;8.41;81.90
62025;BME280;47978;49.118;12.146;2023-04-01T01:00:26;96090.34;;;8.39;81.53
62025;BME280;47978;49.118;12.146;2023-04-01T01:04:29;96088.06;;;8.32;81.81
62025;BME280;47978;49.118;12.146;2023-04-01T01:08:33;96093.25;;;8.25;81.99
62025;BME280;47978;49.118;12.146;2023-04-01T01:12:40;96087.56;;;8.30;81.84
62025;BME280;47978;49.118;12.146;2023-04-01T01:16:46;96085.16;;;8.28;81.67
62025;BME280;47978;49.118;12.146;2023-04-01T01:25:11;96084.84;;;8.39;81.37
62025;BME280;47978;49.118;12.146;2023-04-01T01:29:26;96078.34;;;8.34;81.09
62025;BME280;47978;49.118;12.146;2023-04-01T01:33:33;96079.66;;;8.37;81.41
62025;BME280;47978;49.118;12.146;2023-04-01T01:37:38;96083.19;;;8.38;80.69
62025;BME280;47978;49.118;12.146;2023-04-01T01:41:41;96078.81;;;8.37;80.53
62025;BME280;47978;49.118;12.146;2023-04-01T01:45:44;96077.38;;;8.30;80.87
62025;BME280;47978;49.118;12.146;2023-04-01T01:49:47;96080.28;;;8.34;81.26
62025;BME280;47978;49.118;12.146;2023-04-01T01:53:50;96079.81;;;8.32;80.65
62025;BME280;47978;49.118;12.146;2023-04-01T01:57:52;96080.78;;;8.27;80.65
62025;BME280;47978;49.118;12.146;2023-04-01T02:01:54;96074.16;;;8.28;80.83
62025;BME280;47978;49.118;12.146;2023-04-01T02:05:57;96078.50;;;8.29;80.71
62025;BME280;47978;49.118;12.146;2023-04-01T02:10:01;96075.75;;;8.29;80.94
62025;BME280;47978;49.118;12.146;2023-04-01T02:14:04;96075.91;;;8.24;81.15
62025;BME280;47978;49.118;12.146;2023-04-01T02:18:07;96078.19;;;8.22;81.19
62025;BME280;47978;49.118;12.146;2023-04-01T02:22:10;96070.75;;;8.23;81.15
62025;BME280;47978;49.118;12.146;2023-04-01T02:26:14;96071.88;;;8.22;80.90
62025;BME280;47978;49.118;12.146;2023-04-01T02:30:16;96079.00;;;8.23;81.07
62025;BME280;47978;49.118;12.146;2023-04-01T02:34:18;96082.56;;;8.23;80.95
62025;BME280;47978;49.118;12.146;2023-04-01T02:38:20;96086.94;;;8.24;81.18
62025;BME280;47978;49.118;12.146;2023-04-01T02:42:23;96091.16;;;8.22;81.43
62025;BME280;47978;49.118;12.146;2023-04-01T02:46:24;96093.09;;;8.21;81.24
62025;BME280;47978;49.118;12.146;2023-04-01T02:50:26;96093.75;;;8.18;81.77
62025;BME280;47978;49.118;12.146;2023-04-01T02:54:27;96100.56;;;8.21;81.72
62025;BME280;47978;49.118;12.146;2023-04-01T02:58:30;96103.16;;;8.17;81.73
62025;BME280;47978;49.118;12.146;2023-04-01T03:02:31;96107.19;;;8.11;82.00
62025;BME280;47978;49.118;12.146;2023-04-01T03:06:33;96105.91;;;8.17;82.06
62025;BME280;47978;49.118;12.146;2023-04-01T03:10:34;96108.00;;;8.11;82.25
62025;BME280;47978;49.118;12.146;2023-04-01T03:14:37;96113.34;;;8.08;82.35
62025;BME280;47978;49.118;12.146;2023-04-01T03:18:38;96107.53;;;8.09;82.52
62025;BME280;47978;49.118;12.146;2023-04-01T03:22:40;96115.63;;;8.06;83.02
62025;BME280;47978;49.118;12.146;2023-04-01T03:26:43;96112.38;;;8.04;82.85
62025;BME280;47978;49.118;12.146;2023-04-01T03:30:46;96106.72;;;8.09;82.41
62025;BME280;47978;49.118;12.146;2023-04-01T03:34:47;96110.59;;;8.08;82.73
62025;BME280;47978;49.118;12.146;2023-04-01T03:38:48;96119.50;;;8.05;83.00
62025;BME280;47978;49.118;12.146;2023-04-01T03:42:50;96117.56;;;8.05;82.96
62025;BME280;47978;49.118;12.146;2023-04-01T03:46:53;96116.28;;;8.03;82.71
62025;BME280;47978;49.118;12.146;2023-04-01T03:50:54;96120.47;;;8.09;82.63
62025;BME280;47978;49.118;12.146;2023-04-01T03:54:56;96124.84;;;8.10;82.30
62025;BME280;47978;49.118;12.146;2023-04-01T03:58:57;96134.25;;;8.09;82.35
62025;BME280;47978;49.118;12.146;2023-04-01T04:03:00;96133.44;;;8.08;82.32
62025;BME280;47978;49.118;12.146;2023-04-01T04:07:02;96126.63;;;8.06;82.50
62025;BME280;47978;49.118;12.146;2023-04-01T04:11:03;96126.28;;;8.07;82.71
62025;BME280;47978;49.118;12.146;2023-04-01T04:15:05;96126.28;;;8.07;82.38
62025;BME280;47978;49.118;12.146;2023-04-01T04:19:08;96129.19;;;8.11;82.01
62025;BME280;47978;49.118;12.146;2023-04-01T04:23:09;96140.72;;;8.04;82.09
62025;BME280;47978;49.118;12.146;2023-04-01T04:27:11;96142.50;;;8.09;81.92
62025;BME280;47978;49.118;12.146;2023-04-01T04:31:12;96154.97;;;8.15;81.89
62025;BME280;47978;49.118;12.146;2023-04-01T04:35:20;96151.88;;;8.17;80.83
62025;BME280;47978;49.118;12.146;2023-04-01T04:39:21;96146.06;;;8.18;80.93
62025;BME280;47978;49.118;12.146;2023-04-01T04:43:23;96157.22;;;8.22;80.88
62025;BME280;47978;49.118;12.146;2023-04-01T04:47:24;96152.22;;;8.15;81.55
62025;BME280;47978;49.118;12.146;2023-04-01T04:51:27;96150.59;;;8.05;81.36
62025;BME280;47978;49.118;12.146;2023-04-01T04:55:28;96154.63;;;8.08;81.64
62025;BME280;47978;49.118;12.146;2023-04-01T04:59:30;96150.75;;;8.09;81.21
62025;BME280;47978;49.118;12.146;2023-04-01T05:03:32;96159.97;;;8.04;81.48
62025;BME280;47978;49.118;12.146;2023-04-01T05:07:34;96159.81;;;8.09;81.56
62025;BME280;47978;49.118;12.146;2023-04-01T05:11:36;96158.69;;;8.02;82.09
62025;BME280;47978;49.118;12.146;2023-04-01T05:15:37;96159.19;;;8.04;82.30
62025;BME280;47978;49.118;12.146;2023-04-01T05:19:39;96170.34;;;8.16;82.07
62025;BME280;47978;49.118;12.146;2023-04-01T05:23:42;96174.25;;;8.15;81.90
62025;BME280;47978;49.118;12.146;2023-04-01T05:27:43;96170.69;;;8.15;81.99
62025;BME280;47978;49.118;12.146;2023-04-01T05:31:44;96172.63;;;8.23;81.00
62025;BME280;47978;49.118;12.146;2023-04-01T05:35:46;96175.69;;;8.21;81.23
62025;BME280;47978;49.118;12.146;2023-04-01T05:39:49;96167.59;;;8.25;81.46
62025;BME280;47978;49.118;12.146;2023-04-01T05:43:50;96172.16;;;8.29;81.19
62025;BME280;47978;49.118;12.146;2023-04-01T05:47:52;96168.75;;;8.32;81.09
62025;BME280;47978;49.118;12.146;2023-04-01T05:51:53;96171.50;;;8.32;80.53
62025;BME280;47978;49.118;12.146;2023-04-01T05:55:56;96174.09;;;8.38;80.37
62025;BME280;47978;49.118;12.146;2023-04-01T05:59:57;96170.88;;;8.44;80.57
62025;BME280;47978;49.118;12.146;2023-04-01T06:03:59;96174.09;;;8.55;79.94
62025;BME280;47978;49.118;12.146;2023-04-01T06:08:02;96178.47;;;8.47;79.00
62025;BME280;47978;49.118;12.146;2023-04-01T06:12:26;96169.91;;;8.49;79.73
62025;BME280;47978;49.118;12.146;2023-04-01T06:16:32;96168.75;;;8.59;79.07
62025;BME280;47978;49.118;12.146;2023-04-01T06:20:39;96177.16;;;8.62;78.99
62025;BME280;47978;49.118;12.146;2023-04-01T06:24:57;96178.81;;;8.63;78.82
62025;BME280;47978;49.118;12.146;2023-04-01T06:29:10;96184.47;;;8.67;78.49
62025;BME280;47978;49.118;12.146;2023-04-01T06:33:24;96185.94;;;8.64;78.50
62025;BME280;47978;49.118;12.146;2023-04-01T06:37:40;96189.66;;;8.77;78.06
62025;BME280;47978;49.118;12.146;2023-04-01T06:42:09;96194.66;;;8.84;77.59
62025;BME280;47978;49.118;12.146;2023-04-01T06:46:17;96190.41;;;8.95;77.76
62025;BME280;47978;49.118;12.146;2023-04-01T06:50:22;96190.59;;;8.90;77.36
62025;BME280;47978;49.118;12.146;2023-04-01T06:54:26;96190.09;;;8.88;77.56
62025;BME280;47978;49.118;12.146;2023-04-01T06:58:31;96198.19;;;8.93;77.68
62025;BME280;47978;49.118;12.146;2023-04-01T07:02:37;96192.84;;;8.96;76.94
62025;BME280;47978;49.118;12.146;2023-04-01T07:06:42;96195.44;;;8.93;77.14
62025;BME280;47978;49.118;12.146;2023-04-01T07:10:46;96193.91;;;9.21;75.71
62025;BME280;47978;49.118;12.146;2023-04-01T07:14:48;96178.59;;;9.41;75.75
62025;BME280;47978;49.118;12.146;2023-04-01T07:18:53;96185.75;;;9.72;74.23
62025;BME280;47978;49.118;12.146;2023-04-01T07:22:56;96177.53;;;10.14;73.11
62025;BME280;47978;49.118;12.146;2023-04-01T07:26:58;96183.06;;;10.14;73.32
62025;BME280;47978;49.118;12.146;2023-04-01T07:31:03;96177.13;;;10.03;73.00
62025;BME280;47978;49.118;12.146;2023-04-01T07:35:16;96182.09;;;10.10;72.42
62025;BME280;47978;49.118;12.146;2023-04-01T07:39:22;96181.81;;;10.32;71.80
62025;BME280;47978;49.118;12.146;2023-04-01T07:43:37;96186.09;;;10.00;72.05
62025;BME280;47978;49.118;12.146;2023-04-01T07:47:45;96179.69;;;10.08;72.42
62025;BME280;47978;49.118;12.146;2023-04-01T07:51:52;96192.44;;;10.22;71.65
62025;BME280;47978;49.118;12.146;2023-04-01T07:55:58;96188.09;;;10.42;71.30
62025;BME280;47978;49.118;12.146;2023-04-01T08:00:04;96192.00;;;10.62;70.18
62025;BME280;47978;49.118;12.146;2023-04-01T08:04:14;96190.91;;;10.33;71.60
62025;BME280;47978;49.118;12.146;2023-04-01T08:08:19;96182.00;;;10.27;71.52
62025;BME280;47978;49.118;12.146;2023-04-01T08:12:27;96187.94;;;10.38;70.07
62025;BME280;47978;49.118;12.146;2023-04-01T08:16:35;96185.03;;;10.55;70.34
62025;BME280;47978;49.118;12.146;2023-04-01T08:20:41;96181.31;;;10.72;69.36
62025;BME280;47978;49.118;12.146;2023-04-01T08:24:48;96173.94;;;10.97;68.58
62025;BME280;47978;49.118;12.146;2023-04-01T08:28:51;96184.47;;;11.16;67.35
62025;BME280;47978;49.118;12.146;2023-04-01T08:32:55;96182.03;;;11.15;67.23
62025;BME280;47978;49.118;12.146;2023-04-01T08:36:58;96174.00;;;11.22;67.45
62025;BME280;47978;49.118;12.146;2023-04-01T08:41:05;96167.81;;;11.62;65.93
62025;BME280;47978;49.118;12.146;2023-04-01T08:45:15;96166.31;;;11.89;64.72
62025;BME280;47978;49.118;12.146;2023-04-01T08:49:23;96161.38;;;12.07;63.56
62025;BME280;47978;49.118;12.146;2023-04-01T08:53:32;96159.72;;;12.06;64.19
62025;BME280;47978;49.118;12.146;2023-04-01T08:57:42;96160.66;;;11.98;62.21
62025;BME280;47978;49.118;12.146;2023-04-01T09:01:57;96159.63;;;12.02;62.42
62025;BME280;47978;49.118;12.146;2023-04-01T09:06:09;96143.09;;;12.06;63.33
62025;BME280;47978;49.118;12.146;2023-04-01T09:10:32;96157.78;;;11.94;62.03
62025;BME280;47978;49.118;12.146;2023-04-01T09:14:48;96155.72;;;11.79;62.86
62025;BME280;47978;49.118;12.146;2023-04-01T09:18:58;96160.88;;;11.80;63.63
62025;BME280;47978;49.118;12.146;2023-04-01T09:23:10;96152.50;;;12.01;62.52
62025;BME280;47978;49.118;12.146;2023-04-01T09:27:19;96158.56;;;12.19;62.40
62025;BME280;47978;49.118;12.146;2023-04-01T09:31:32;96155.25;;;12.01;63.02
62025;BME280;47978;49.118;12.146;2023-04-01T09:35:42;96159.25;;;12.04;62.27
62025;BME280;47978;49.118;12.146;2023-04-01T09:39:51;96161.50;;;11.98;62.30
62025;BME280;47978;49.118;12.146;2023-04-01T09:44:03;96159.75;;;11.93;63.11
62025;BME280;47978;49.118;12.146;2023-04-01T09:48:13;96162.28;;;11.74;63.20
62025;BME280;47978;49.118;12.146;2023-04-01T09:52:18;96161.38;;;11.70;63.53
62025;BME280;47978;49.118;12.146;2023-04-01T09:56:38;96156.25;;;11.35;64.27
62025;BME280;47978;49.118;12.146;2023-04-01T10:00:49;96164.91;;;11.21;64.41
62025;BME280;47978;49.118;12.146;2023-04-01T10:09:32;96164.81;;;11.55;63.52
62025;BME280;47978;49.118;12.146;2023-04-01T10:14:02;96161.81;;;11.60;64.86
62025;BME280;47978;49.118;12.146;2023-04-01T10:22:35;96173.03;;;11.76;64.25
62025;BME280;47978;49.118;12.146;2023-04-01T10:44:05;96155.44;;;11.84;64.00
62025;BME280;47978;49.118;12.146;2023-04-01T10:48:21;96141.84;;;11.66;64.09
62025;BME280;47978;49.118;12.146;2023-04-01T10:56:56;96141.03;;;11.66;64.35
62025;BME280;47978;49.118;12.146;2023-04-01T11:05:22;96137.56;;;11.69;63.08
62025;BME280;47978;49.118;12.146;2023-04-01T11:18:31;96131.00;;;12.10;63.08
62025;BME280;47978;49.118;12.146;2023-04-01T11:22:46;96135.28;;;11.96;63.17
62025;BME280;47978;49.118;12.146;2023-04-01T11:26:54;96119.94;;;11.74;62.54
62025;BME280;47978;49.118;12.146;2023-04-01T11:31:04;96132.63;;;11.50;64.87
62025;BME280;47978;49.118;12.146;2023-04-01T11:35:20;96147.72;;;11.28;68.84
62025;BME280;47978;49.118;12.146;2023-04-01T11:39:27;96157.72;;;10.75;74.70
62025;BME280;47978;49.118;12.146;2023-04-01T11:43:32;96157.16;;;10.48;76.78
62025;BME280;47978;49.118;12.146;2023-04-01T11:47:45;96157.06;;;10.57;77.18
62025;BME280;47978;49.118;12.146;2023-04-01T11:51:55;96159.28;;;10.64;77.33
62025;BME280;47978;49.118;12.146;2023-04-01T11:56:09;96162.94;;;10.55;77.57
62025;BME280;47978;49.118;12.146;2023-04-01T12:00:22;96169.75;;;10.58;78.74
62025;BME280;47978;49.118;12.146;2023-04-01T12:08:46;96180.63;;;10.42;78.27
62025;BME280;47978;49.118;12.146;2023-04-01T12:12:54;96184.38;;;10.58;77.39
62025;BME280;47978;49.118;12.146;2023-04-01T12:17:03;96176.81;;;10.47;77.38
62025;BME280;47978;49.118;12.146;2023-04-01T12:21:15;96185.13;;;10.68;77.97
62025;BME280;47978;49.118;12.146;2023-04-01T12:25:24;96174.13;;;10.92;76.80
62025;BME280;47978;49.118;12.146;2023-04-01T12:29:42;96170.72;;;11.08;75.29
62025;BME280;47978;49.118;12.146;2023-04-01T12:33:48;96174.25;;;10.63;76.88
62025;BME280;47978;49.118;12.146;2023-04-01T12:37:58;96181.19;;;10.69;76.76
62025;BME280;47978;49.118;12.146;2023-04-01T12:42:07;96177.00;;;10.21;78.63
62025;BME280;47978;49.118;12.146;2023-04-01T12:46:15;96184.69;;;10.15;79.29
62025;BME280;47978;49.118;12.146;2023-04-01T12:50:33;96194.13;;;9.84;79.49
62025;BME280;47978;49.118;12.146;2023-04-01T12:59:08;96188.59;;;9.55;80.45
62025;BME280;47978;49.118;12.146;2023-04-01T13:03:25;96199.19;;;9.44;81.00
62025;BME280;47978;49.118;12.146;2023-04-01T13:12:01;96199.03;;;9.79;81.81
62025;BME280;47978;49.118;12.146;2023-04-01T13:16:09;96198.44;;;9.64;81.51
62025;BME280;47978;49.118;12.146;2023-04-01T13:20:16;96201.28;;;9.85;80.96
62025;BME280;47978;49.118;12.146;2023-04-01T13:24:24;96197.25;;;10.04;80.58
62025;BME280;47978;49.118;12.146;2023-04-01T13:28:30;96198.41;;;10.03;80.70
62025;BME280;47978;49.118;12.146;2023-04-01T13:32:35;96199.78;;;10.18;80.52
62025;BME280;47978;49.118;12.146;2023-04-01T13:36:48;96203.22;;;10.14;79.37
62025;BME280;47978;49.118;12.146;2023-04-01T13:40:53;96211.81;;;10.13;79.92
62025;BME280;47978;49.118;12.146;2023-04-01T13:45:09;96203.81;;;9.99;80.61
62025;BME280;47978;49.118;12.146;2023-04-01T13:49:24;96207.69;;;9.98;81.16
62025;BME280;47978;49.118;12.146;2023-04-01T14:02:28;96202.66;;;10.00;82.23
62025;BME280;47978;49.118;12.146;2023-04-01T14:06:35;96211.50;;;10.14;81.77
62025;BME280;47978;49.118;12.146;2023-04-01T14:10:40;96204.94;;;10.28;81.51
62025;BME280;47978;49.118;12.146;2023-04-01T14:14:47;96208.84;;;10.27;82.20
62025;BME280;47978;49.118;12.146;2023-04-01T14:19:06;96200.84;;;10.34;81.53
62025;BME280;47978;49.118;12.146;2023-04-01T14:23:13;96205.75;;;10.28;81.68
62025;BME280;47978;49.118;12.146;2023-04-01T14:27:23;96212.34;;;10.06;82.60
62025;BME280;47978;49.118;12.146;2023-04-01T14:31:38;96214.84;;;9.99;83.90
62025;BME280;47978;49.118;12.146;2023-04-01T14:35:46;96213.03;;;9.74;84.06
62025;BME280;47978;49.118;12.146;2023-04-01T14:44:29;96219.06;;;9.67;85.47
62025;BME280;47978;49.118;12.146;2023-04-01T14:48:38;96229.16;;;9.63;84.93
62025;BME280;47978;49.118;12.146;2023-04-01T14:52:43;96220.03;;;9.71;84.78
62025;BME280;47978;49.118;12.146;2023-04-01T14:56:48;96217.66;;;9.90;85.46
62025;BME280;47978;49.118;12.146;2023-04-01T15:00:52;96218.97;;;9.84;84.99
62025;BME280;47978;49.118;12.146;2023-04-01T15:04:58;96224.06;;;10.03;85.40
62025;BME280;47978;49.118;12.146;2023-04-01T15:09:10;96228.25;;;10.09;85.60
62025;BME280;47978;49.118;12.146;2023-04-01T15:13:16;96220.38;;;9.99;85.47
62025;BME280;47978;49.118;12.146;2023-04-01T15:17:29;96227.44;;;10.09;85.74
62025;BME280;47978;49.118;12.146;2023-04-01T15:26:10;96232.50;;;10.07;85.53
62025;BME280;47978;49.118;12.146;2023-04-01T15:30:17;96231.94;;;9.93;85.42
62025;BME280;47978;49.118;12.146;2023-04-01T15:34:26;96229.78;;;9.98;85.03
62025;BME280;47978;49.118;12.146;2023-04-01T15:38:33;96233.69;;;9.97;85.20
62025;BME280;47978;49.118;12.146;2023-04-01T15:42:42;96236.94;;;9.99;85.03
62025;BME280;47978;49.118;12.146;2023-04-01T15:46:48;96244.13;;;9.91;85.71
62025;BME280;47978;49.118;12.146;2023-04-01T15:55:13;96245.91;;;9.87;85.41
62025;BME280;47978;49.118;12.146;2023-04-01T15:59:24;96255.84;;;9.88;85.47
62025;BME280;47978;49.118;12.146;2023-04-01T16:03:35;96258.28;;;9.81;85.89
62025;BME280;47978;49.118;12.146;2023-04-01T16:07:42;96256.16;;;9.87;85.47
62025;BME280;47978;49.118;12.146;2023-04-01T16:11:46;96255.69;;;9.85;85.44
62025;BME280;47978;49.118;12.146;2023-04-01T16:15:53;96249.53;;;9.79;86.02
62025;BME280;47978;49.118;12.146;2023-04-01T16:19:59;96257.16;;;9.82;85.84
62025;BME280;47978;49.118;12.146;2023-04-01T16:24:04;96254.97;;;9.97;85.47
62025;BME280;47978;49.118;12.146;2023-04-01T16:28:15;96259.09;;;9.90;85.10
62025;BME280;47978;49.118;12.146;2023-04-01T16:32:21;96258.63;;;9.80;85.30
62025;BME280;47978;49.118;12.146;2023-04-01T16:36:28;96259.31;;;9.77;86.54
62025;BME280;47978;49.118;12.146;2023-04-01T16:40:39;96270.69;;;9.66;87.23
62025;BME280;47978;49.118;12.146;2023-04-01T16:44:45;96282.50;;;9.76;86.71
62025;BME280;47978;49.118;12.146;2023-04-01T16:48:59;96283.66;;;9.75;86.52
62025;BME280;47978;49.118;12.146;2023-04-01T16:53:02;96282.22;;;9.68;86.28
62025;BME280;47978;49.118;12.146;2023-04-01T16:57:15;96283.03;;;9.69;86.33
62025;BME280;47978;49.118;12.146;2023-04-01T17:01:19;96289.41;;;9.52;85.87
62025;BME280;47978;49.118;12.146;2023-04-01T17:05:23;96289.25;;;9.57;85.68
62025;BME280;47978;49.118;12.146;2023-04-01T17:09:39;96291.03;;;9.53;86.48
62025;BME280;47978;49.118;12.146;2023-04-01T17:13:46;96300.47;;;9.43;86.96
62025;BME280;47978;49.118;12.146;2023-04-01T17:17:49;96298.50;;;9.44;87.21
62025;BME280;47978;49.118;12.146;2023-04-01T17:21:57;96308.44;;;9.45;87.25
62025;BME280;47978;49.118;12.146;2023-04-01T17:30:24;96321.09;;;9.37;86.90
62025;BME280;47978;49.118;12.146;2023-04-01T17:34:31;96317.69;;;9.32;86.99
62025;BME280;47978;49.118;12.146;2023-04-01T17:38:45;96323.88;;;9.29;87.26
62025;BME280;47978;49.118;12.146;2023-04-01T17:42:52;96330.34;;;9.24;86.04
62025;BME280;47978;49.118;12.146;2023-04-01T17:47:03;96326.50;;;9.16;85.88
62025;BME280;47978;49.118;12.146;2023-04-01T17:51:15;96344.66;;;9.17;85.93
62025;BME280;47978;49.118;12.146;2023-04-01T17:55:28;96344.50;;;9.14;85.94
62025;BME280;47978;49.118;12.146;2023-04-01T17:59:35;96339.78;;;9.06;84.97
62025;BME280;47978;49.118;12.146;2023-04-01T18:03:49;96344.31;;;9.01;85.67
62025;BME280;47978;49.118;12.146;2023-04-01T18:08:01;96351.47;;;9.03;84.84
62025;BME280;47978;49.118;12.146;2023-04-01T18:12:09;96357.44;;;9.05;84.01
62025;BME280;47978;49.118;12.146;2023-04-01T18:16:18;96354.69;;;9.05;83.70
62025;BME280;47978;49.118;12.146;2023-04-01T18:20:31;96367.81;;;8.99;84.16
62025;BME280;47978;49.118;12.146;2023-04-01T18:24:40;96372.88;;;9.06;83.98
62025;BME280;47978;49.118;12.146;2023-04-01T18:28:53;96371.25;;;9.05;83.62
62025;BME280;47978;49.118;12.146;2023-04-01T18:32:57;96362.16;;;9.04;84.36
62025;BME280;47978;49.118;12.146;2023-04-01T18:37:00;96375.78;;;9.09;83.74
62025;BME280;47978;49.118;12.146;2023-04-01T18:41:13;96376.75;;;9.13;83.90
62025;BME280;47978;49.118;12.146;2023-04-01T18:45:19;96373.34;;;9.08;84.05
62025;BME280;47978;49.118;12.146;2023-04-01T18:49:23;96378.41;;;9.06;84.03
62025;BME280;47978;49.118;12.146;2023-04-01T18:53:27;96388.63;;;9.14;84.13
62025;BME280;47978;49.118;12.146;2023-04-01T18:57:38;96394.78;;;9.11;83.77
62025;BME280;47978;49.118;12.146;2023-04-01T19:01:43;96392.03;;;9.19;84.23
62025;BME280;47978;49.118;12.146;2023-04-01T19:05:50;96400.13;;;9.16;84.61
62025;BME280;47978;49.118;12.146;2023-04-01T19:09:52;96400.63;;;9.18;84.27
62025;BME280;47978;49.118;12.146;2023-04-01T19:13:56;96410.84;;;9.17;84.10
62025;BME280;47978;49.118;12.146;2023-04-01T19:18:06;96417.16;;;9.18;84.14
62025;BME280;47978;49.118;12.146;2023-04-01T19:22:21;96422.69;;;9.18;84.10
62025;BME280;47978;49.118;12.146;2023-04-01T19:26:28;96418.97;;;9.14;83.99
62025;BME280;47978;49.118;12.146;2023-04-01T19:30:42;96421.72;;;9.14;83.50
62025;BME280;47978;49.118;12.146;2023-04-01T19:34:52;96430.78;;;9.14;83.23
62025;BME280;47978;49.118;12.146;2023-04-01T19:39:00;96428.69;;;9.11;83.58
62025;BME280;47978;49.118;12.146;2023-04-01T19:43:08;96430.31;;;9.12;83.42
62025;BME280;47978;49.118;12.146;2023-04-01T19:47:13;96435.16;;;9.15;83.59
62025;BME280;47978;49.118;12.146;2023-04-01T19:51:19;96445.03;;;9.08;83.34
62025;BME280;47978;49.118;12.146;2023-04-01T19:55:29;96440.16;;;8.96;83.50
62025;BME280;47978;49.118;12.146;2023-04-01T19:59:35;96452.97;;;8.92;84.15
62025;BME280;47978;49.118;12.146;2023-04-01T20:03:40;96451.19;;;8.96;84.02
62025;BME280;47978;49.118;12.146;2023-04-01T20:07:46;96453.28;;;8.90;84.30
62025;BME280;47978;49.118;12.146;2023-04-01T20:11:53;96466.44;;;8.93;83.96
62025;BME280;47978;49.118;12.146;2023-04-01T20:16:00;96461.56;;;8.90;84.44
62025;BME280;47978;49.118;12.146;2023-04-01T20:20:03;96455.72;;;8.83;84.60
62025;BME280;47978;49.118;12.146;2023-04-01T20:24:18;96459.63;;;8.91;84.16
62025;BME280;47978;49.118;12.146;2023-04-01T20:28:25;96458.50;;;8.92;84.19
62025;BME280;47978;49.118;12.146;2023-04-01T20:32:39;96464.66;;;8.89;84.34
62025;BME280;47978;49.118;12.146;2023-04-01T20:36:46;96471.13;;;8.93;84.02
62025;BME280;47978;49.118;12.146;2023-04-01T20:40:57;96476.66;;;8.93;84.10
62025;BME280;47978;49.118;12.146;2023-04-01T20:45:14;96474.53;;;8.90;84.12
62025;BME280;47978;49.118;12.146;2023-04-01T20:49:30;96478.09;;;8.90;83.92
62025;BME280;47978;49.118;12.146;2023-04-01T20:53:35;96475.19;;;8.95;83.16
62025;BME280;47978;49.118;12.146;2023-04-01T20:57:41;96484.75;;;8.89;82.99
62025;BME280;47978;49.118;12.146;2023-04-01T21:01:45;96479.25;;;8.98;82.96
62025;BME280;47978;49.118;12.146;2023-04-01T21:05:53;96483.81;;;8.94;83.09
62025;BME280;47978;49.118;12.146;2023-04-01T21:10:06;96486.38;;;8.99;83.08
62025;BME280;47978;49.118;12.146;2023-04-01T21:18:33;96483.81;;;8.94;83.61
62025;BME280;47978;49.118;12.146;2023-04-01T21:22:41;96498.22;;;8.91;83.42
62025;BME280;47978;49.118;12.146;2023-04-01T21:26:47;96499.34;;;8.90;83.97
62025;BME280;47978;49.118;12.146;2023-04-01T21:31:05;96494.34;;;9.00;83.08
62025;BME280;47978;49.118;12.146;2023-04-01T21:35:14;96514.31;;;8.97;83.37
62025;BME280;47978;49.118;12.146;2023-04-01T21:39:27;96505.41;;;9.09;82.58
62025;BME280;47978;49.118;12.146;2023-04-01T21:43:45;96503.78;;;9.08;82.87
62025;BME280;47978;49.118;12.146;2023-04-01T21:52:29;96511.41;;;9.11;82.44
62025;BME280;47978;49.118;12.146;2023-04-01T22:00:57;96519.34;;;9.04;82.70
62025;BME280;47978;49.118;12.146;2023-04-01T22:05:02;96520.47;;;9.03;82.81
62025;BME280;47978;49.118;12.146;2023-04-01T22:09:10;96518.81;;;8.93;82.74
62025;BME280;47978;49.118;12.146;2023-04-01T22:13:14;96529.38;;;8.91;82.89
62025;BME280;47978;49.118;12.146;2023-04-01T22:17:19;96525.81;;;8.91;83.23
62025;BME280;47978;49.118;12.146;2023-04-01T22:21:26;96526.44;;;8.96;82.76
62025;BME280;47978;49.118;12.146;2023-04-01T22:25:31;96530.97;;;8.92;82.71
62025;BME280;47978;49.118;12.146;2023-04-01T22:29:38;96530.16;;;8.83;83.14
62025;BME280;47978;49.118;12.146;2023-04-01T22:33:45;96527.06;;;8.93;82.66
62025;BME280;47978;49.118;12.146;2023-04-01T22:37:51;96525.81;;;8.91;82.27
62025;BME280;47978;49.118;12.146;2023-04-01T22:41:59;96533.91;;;8.96;82.18
62025;BME280;47978;49.118;12.146;2023-04-01T22:46:23;96533.09;;;8.95;82.54
62025;BME280;47978;49.118;12.146;2023-04-01T22:50:28;96542.00;;;8.92;82.28
62025;BME280;47978;49.118;12.146;2023-04-01T22:54:32;96543.47;;;8.90;82.37
62025;BME280;47978;49.118;12.146;2023-04-01T22:58:38;96542.81;;;8.93;82.41
62025;BME280;47978;49.118;12.146;2023-04-01T23:02:40;96541.19;;;8.92;82.69
62025;BME280;47978;49.118;12.146;2023-04-01T23:06:44;96544.59;;;8.89;82.50
62025;BME280;47978;49.118;12.146;2023-04-01T23:10:49;96545.25;;;8.86;82.93
62025;BME280;47978;49.118;12.146;2023-04-01T23:14:54;96552.72;;;8.94;82.75
62025;BME280;47978;49.118;12.146;2023-04-01T23:18:57;96552.56;;;8.99;82.20
62025;BME280;47978;49.118;12.146;2023-04-01T23:23:07;96558.72;;;8.96;82.69
62025;BME280;47978;49.118;12.146;2023-04-01T23:27:14;96562.63;;;8.95;83.00